sensor_id;sensor_type;location;lat;lon;timestamp;pressure;altitude;pressure_sealevel;temperature;humidity
62103;BME280;48077;48.104;11.702;2022-07-23T00:01:36;95549.88;;;21.96;63.64
62103;BME280;48077;48.104;11.702;2022-07-23T00:04:00;95522.09;;;21.85;62.89
62103;BME280;48077;48.104;11.702;2022-07-23T00:06:24;95530.03;;;21.95;62.81
62103;BME280;48077;48.104;11.702;2022-07-23T00:08:47;95510.38;;;21.90;62.29
62103;BME280;48077;48.104;11.702;2022-07-23T00:11:11;95479.81;;;21.70;63.36
62103;BME280;48077;48.104;11.702;2022-07-23T00:13:34;95499.81;;;21.74;62.87
62103;BME280;48077;48.104;11.702;2022-07-23T00:15:58;95478.81;;;21.66;62.34
62103;BME280;48077;48.104;11.702;2022-07-23T00:18:21;95500.59;;;21.75;61.08
62103;BME280;48077;48.104;11.702;2022-07-23T00:20:45;95471.69;;;21.56;60.58
62103;BME280;48077;48.104;11.702;2022-07-23T00:23:08;95491.78;;;21.69;61.08
62103;BME280;48077;48.104;11.702;2022-07-23T00:25:32;95489.56;;;21.71;61.85
62103;BME280;48077;48.104;11.702;2022-07-23T00:27:55;95455.91;;;21.45;62.20
62103;BME280;48077;48.104;11.702;2022-07-23T00:30:19;95515.09;;;21.70;62.34
62103;BME280;48077;48.104;11.702;2022-07-23T00:32:47;95492.69;;;21.51;61.89
62103;BME280;48077;48.104;11.702;2022-07-23T00:35:10;95519.94;;;21.59;61.66
62103;BME280;48077;48.104;11.702;2022-07-23T00:37:34;95535.22;;;21.69;61.48
62103;BME280;48077;48.104;11.702;2022-07-23T00:39:57;95481.22;;;21.40;61.91
62103;BME280;48077;48.104;11.702;2022-07-23T00:42:20;95507.97;;;21.60;61.84
62103;BME280;48077;48.104;11.702;2022-07-23T00:44:44;95495.81;;;21.44;61.63
62103;BME280;48077;48.104;11.702;2022-07-23T00:47:07;95532.50;;;21.69;61.40
62103;BME280;48077;48.104;11.702;2022-07-23T00:49:31;95514.41;;;21.65;61.18
62103;BME280;48077;48.104;11.702;2022-07-23T00:51:55;95486.56;;;21.45;61.03
62103;BME280;48077;48.104;11.702;2022-07-23T00:54:19;95526.66;;;21.62;61.25
62103;BME280;48077;48.104;11.702;2022-07-23T00:56:46;95540.63;;;21.69;61.47
62103;BME280;48077;48.104;11.702;2022-07-23T00:59:09;95534.00;;;21.61;60.85
62103;BME280;48077;48.104;11.702;2022-07-23T01:01:33;95516.09;;;21.47;61.08
62103;BME280;48077;48.104;11.702;2022-07-23T01:03:56;95522.13;;;21.43;60.90
62103;BME280;48077;48.104;11.702;2022-07-23T01:06:20;95540.91;;;21.54;61.00
62103;BME280;48077;48.104;11.702;2022-07-23T01:08:43;95524.19;;;21.33;60.43
62103;BME280;48077;48.104;11.702;2022-07-23T01:11:07;95583.06;;;21.65;60.63
62103;BME280;48077;48.104;11.702;2022-07-23T01:13:30;95583.06;;;21.65;60.35
62103;BME280;48077;48.104;11.702;2022-07-23T01:15:53;95600.03;;;21.71;60.50
62103;BME280;48077;48.104;11.702;2022-07-23T01:18:17;95604.16;;;21.54;60.61
62103;BME280;48077;48.104;11.702;2022-07-23T01:20:40;95644.56;;;21.70;60.55
62103;BME280;48077;48.104;11.702;2022-07-23T01:23:04;95625.66;;;21.51;60.67
62103;BME280;48077;48.104;11.702;2022-07-23T01:25:27;95676.75;;;21.76;60.82
62103;BME280;48077;48.104;11.702;2022-07-23T01:27:54;95680.47;;;21.80;60.91
62103;BME280;48077;48.104;11.702;2022-07-23T01:30:17;95672.81;;;21.69;60.67
62103;BME280;48077;48.104;11.702;2022-07-23T01:32:41;95674.47;;;21.83;57.76
62103;BME280;48077;48.104;11.702;2022-07-23T01:35:05;95687.94;;;21.89;57.20
62103;BME280;48077;48.104;11.702;2022-07-23T01:37:29;95709.56;;;21.94;55.69
62103;BME280;48077;48.104;11.702;2022-07-23T01:39:52;95682.88;;;21.68;55.57
62103;BME280;48077;48.104;11.702;2022-07-23T01:42:16;95689.53;;;21.43;55.97
62103;BME280;48077;48.104;11.702;2022-07-23T01:44:39;95672.69;;;21.08;55.52
62103;BME280;48077;48.104;11.702;2022-07-23T01:47:03;95650.84;;;20.86;54.88
62103;BME280;48077;48.104;11.702;2022-07-23T01:49:26;95662.75;;;20.85;54.32
62103;BME280;48077;48.104;11.702;2022-07-23T01:51:49;95658.50;;;20.97;53.68
62103;BME280;48077;48.104;11.702;2022-07-23T01:54:34;95672.56;;;20.99;53.57
62103;BME280;48077;48.104;11.702;2022-07-23T01:56:58;95645.47;;;20.80;53.75
62103;BME280;48077;48.104;11.702;2022-07-23T01:59:22;95648.78;;;20.77;54.18
62103;BME280;48077;48.104;11.702;2022-07-23T02:01:45;95681.06;;;20.93;54.68
62103;BME280;48077;48.104;11.702;2022-07-23T02:04:09;95668.47;;;20.83;55.35
62103;BME280;48077;48.104;11.702;2022-07-23T02:06:32;95658.66;;;20.68;56.33
62103;BME280;48077;48.104;11.702;2022-07-23T02:08:55;95650.44;;;20.54;56.96
62103;BME280;48077;48.104;11.702;2022-07-23T02:11:19;95668.41;;;20.69;57.35
62103;BME280;48077;48.104;11.702;2022-07-23T02:13:42;95679.03;;;20.66;57.62
62103;BME280;48077;48.104;11.702;2022-07-23T02:16:06;95673.72;;;20.55;57.22
62103;BME280;48077;48.104;11.702;2022-07-23T02:18:29;95667.03;;;20.48;57.25
62103;BME280;48077;48.104;11.702;2022-07-23T02:20:52;95641.97;;;20.37;57.55
62103;BME280;48077;48.104;11.702;2022-07-23T02:23:16;95655.34;;;20.52;57.82
62103;BME280;48077;48.104;11.702;2022-07-23T02:25:39;95651.13;;;20.41;58.54
62103;BME280;48077;48.104;11.702;2022-07-23T02:28:03;95671.00;;;20.55;59.15
62103;BME280;48077;48.104;11.702;2022-07-23T02:30:26;95640.78;;;20.48;59.83
62103;BME280;48077;48.104;11.702;2022-07-23T02:32:50;95624.78;;;20.28;62.13
62103;BME280;48077;48.104;11.702;2022-07-23T02:35:13;95627.66;;;20.12;63.89
62103;BME280;48077;48.104;11.702;2022-07-23T02:37:37;95594.81;;;20.00;65.20
62103;BME280;48077;48.104;11.702;2022-07-23T02:40:00;95593.69;;;19.82;68.64
62103;BME280;48077;48.104;11.702;2022-07-23T02:42:23;95617.94;;;19.63;68.70
62103;BME280;48077;48.104;11.702;2022-07-23T02:44:47;95605.50;;;19.38;68.29
62103;BME280;48077;48.104;11.702;2022-07-23T02:47:10;95612.78;;;19.37;70.00
62103;BME280;48077;48.104;11.702;2022-07-23T02:49:33;95614.78;;;19.27;70.41
62103;BME280;48077;48.104;11.702;2022-07-23T02:51:57;95624.88;;;19.16;71.35
62103;BME280;48077;48.104;11.702;2022-07-23T02:54:20;95644.25;;;19.28;72.74
62103;BME280;48077;48.104;11.702;2022-07-23T02:56:44;95633.84;;;19.11;72.90
62103;BME280;48077;48.104;11.702;2022-07-23T02:59:07;95698.91;;;19.25;73.67
62103;BME280;48077;48.104;11.702;2022-07-23T03:01:31;95744.56;;;19.27;74.92
62103;BME280;48077;48.104;11.702;2022-07-23T03:03:54;95718.28;;;18.98;75.57
62103;BME280;48077;48.104;11.702;2022-07-23T03:06:18;95726.19;;;18.84;75.46
62103;BME280;48077;48.104;11.702;2022-07-23T03:08:41;95748.63;;;18.85;75.81
62103;BME280;48077;48.104;11.702;2022-07-23T03:11:04;95751.84;;;18.92;76.74
62103;BME280;48077;48.104;11.702;2022-07-23T03:13:30;95732.16;;;18.81;77.62
62103;BME280;48077;48.104;11.702;2022-07-23T03:15:54;95704.94;;;18.67;78.88
62103;BME280;48077;48.104;11.702;2022-07-23T03:18:17;95731.69;;;18.64;80.52
62103;BME280;48077;48.104;11.702;2022-07-23T03:20:41;95715.03;;;18.46;81.51
62103;BME280;48077;48.104;11.702;2022-07-23T03:23:04;95744.38;;;18.63;82.35
62103;BME280;48077;48.104;11.702;2022-07-23T03:25:27;95717.16;;;18.54;82.90
62103;BME280;48077;48.104;11.702;2022-07-23T03:27:51;95732.00;;;18.52;83.75
62103;BME280;48077;48.104;11.702;2022-07-23T03:30:14;95716.97;;;18.30;84.47
62103;BME280;48077;48.104;11.702;2022-07-23T03:32:38;95741.25;;;18.40;85.08
62103;BME280;48077;48.104;11.702;2022-07-23T03:35:01;95682.53;;;18.02;85.54
62103;BME280;48077;48.104;11.702;2022-07-23T03:37:25;95732.63;;;18.28;85.70
62103;BME280;48077;48.104;11.702;2022-07-23T03:39:48;95720.78;;;18.24;86.62
62103;BME280;48077;48.104;11.702;2022-07-23T03:42:12;95676.09;;;17.92;86.72
62103;BME280;48077;48.104;11.702;2022-07-23T03:44:35;95700.84;;;18.10;87.43
62103;BME280;48077;48.104;11.702;2022-07-23T03:46:59;95683.31;;;18.07;88.11
62103;BME280;48077;48.104;11.702;2022-07-23T03:49:23;95664.69;;;18.11;87.67
62103;BME280;48077;48.104;11.702;2022-07-23T03:51:46;95639.88;;;18.04;87.75
62103;BME280;48077;48.104;11.702;2022-07-23T03:54:10;95605.94;;;17.92;87.54
62103;BME280;48077;48.104;11.702;2022-07-23T03:56:33;95600.50;;;17.97;85.77
62103;BME280;48077;48.104;11.702;2022-07-23T03:58:56;95545.53;;;17.83;84.11
62103;BME280;48077;48.104;11.702;2022-07-23T04:01:20;95571.88;;;18.02;83.02
62103;BME280;48077;48.104;11.702;2022-07-23T04:03:43;95567.88;;;17.94;82.30
62103;BME280;48077;48.104;11.702;2022-07-23T04:06:06;95604.00;;;18.03;82.78
62103;BME280;48077;48.104;11.702;2022-07-23T04:08:30;95625.59;;;18.03;84.04
62103;BME280;48077;48.104;11.702;2022-07-23T04:10:53;95634.22;;;18.05;84.27
62103;BME280;48077;48.104;11.702;2022-07-23T04:13:17;95610.53;;;17.82;84.29
62103;BME280;48077;48.104;11.702;2022-07-23T04:15:40;95617.56;;;17.88;84.54
62103;BME280;48077;48.104;11.702;2022-07-23T04:18:03;95602.19;;;17.73;85.44
62103;BME280;48077;48.104;11.702;2022-07-23T04:20:27;95601.16;;;17.69;86.72
62103;BME280;48077;48.104;11.702;2022-07-23T04:22:50;95623.75;;;17.83;87.88
62103;BME280;48077;48.104;11.702;2022-07-23T04:25:13;95633.44;;;17.89;88.03
62103;BME280;48077;48.104;11.702;2022-07-23T04:27:39;95624.25;;;17.95;88.64
62103;BME280;48077;48.104;11.702;2022-07-23T04:30:03;95616.72;;;17.87;88.24
62103;BME280;48077;48.104;11.702;2022-07-23T04:32:26;95607.84;;;17.87;88.66
62103;BME280;48077;48.104;11.702;2022-07-23T04:34:50;95569.03;;;17.67;88.61
62103;BME280;48077;48.104;11.702;2022-07-23T04:37:13;95585.44;;;17.81;88.92
62103;BME280;48077;48.104;11.702;2022-07-23T04:39:36;95572.78;;;17.76;89.74
62103;BME280;48077;48.104;11.702;2022-07-23T04:42:00;95577.09;;;17.88;90.44
62103;BME280;48077;48.104;11.702;2022-07-23T04:44:24;95571.13;;;17.91;90.21
62103;BME280;48077;48.104;11.702;2022-07-23T04:46:47;95567.06;;;17.93;89.62
62103;BME280;48077;48.104;11.702;2022-07-23T04:49:10;95580.75;;;18.07;89.65
62103;BME280;48077;48.104;11.702;2022-07-23T04:51:34;95604.91;;;18.33;88.99
62103;BME280;48077;48.104;11.702;2022-07-23T04:53:57;95575.31;;;18.12;88.58
62103;BME280;48077;48.104;11.702;2022-07-23T04:56:20;95558.13;;;18.03;87.91
62103;BME280;48077;48.104;11.702;2022-07-23T04:58:44;95587.47;;;18.15;88.19
62103;BME280;48077;48.104;11.702;2022-07-23T05:01:07;95593.94;;;18.14;87.89
62103;BME280;48077;48.104;11.702;2022-07-23T05:03:31;95566.53;;;17.96;87.83
62103;BME280;48077;48.104;11.702;2022-07-23T05:05:54;95563.03;;;17.96;87.95
62103;BME280;48077;48.104;11.702;2022-07-23T05:08:17;95546.31;;;17.94;87.49
62103;BME280;48077;48.104;11.702;2022-07-23T05:10:41;95555.38;;;18.08;87.71
62103;BME280;48077;48.104;11.702;2022-07-23T05:13:04;95554.78;;;18.16;86.53
62103;BME280;48077;48.104;11.702;2022-07-23T05:15:27;95551.28;;;18.16;85.81
62103;BME280;48077;48.104;11.702;2022-07-23T05:17:51;95583.28;;;18.38;85.23
62103;BME280;48077;48.104;11.702;2022-07-23T05:20:14;95581.97;;;18.35;84.79
62103;BME280;48077;48.104;11.702;2022-07-23T05:22:38;95548.63;;;18.11;84.70
62103;BME280;48077;48.104;11.702;2022-07-23T05:25:01;95598.06;;;18.46;85.06
62103;BME280;48077;48.104;11.702;2022-07-23T05:27:25;95566.63;;;18.26;84.71
62103;BME280;48077;48.104;11.702;2022-07-23T05:29:48;95569.81;;;18.33;83.83
62103;BME280;48077;48.104;11.702;2022-07-23T05:32:11;95561.16;;;18.36;82.54
62103;BME280;48077;48.104;11.702;2022-07-23T05:34:35;95564.63;;;18.41;81.86
62103;BME280;48077;48.104;11.702;2022-07-23T05:36:58;95576.41;;;18.56;82.13
62103;BME280;48077;48.104;11.702;2022-07-23T05:39:21;95585.25;;;18.67;82.65
62103;BME280;48077;48.104;11.702;2022-07-23T05:41:45;95600.84;;;18.75;82.98
62103;BME280;48077;48.104;11.702;2022-07-23T05:44:08;95600.84;;;18.75;83.74
62103;BME280;48077;48.104;11.702;2022-07-23T05:46:32;95587.66;;;18.68;83.42
62103;BME280;48077;48.104;11.702;2022-07-23T05:48:55;95597.34;;;18.74;83.06
62103;BME280;48077;48.104;11.702;2022-07-23T05:51:22;95589.81;;;18.71;82.64
62103;BME280;48077;48.104;11.702;2022-07-23T05:53:46;95562.16;;;18.50;82.97
62103;BME280;48077;48.104;11.702;2022-07-23T05:56:10;95563.47;;;18.53;83.29
62103;BME280;48077;48.104;11.702;2022-07-23T05:58:33;95608.69;;;18.76;83.60
62103;BME280;48077;48.104;11.702;2022-07-23T06:00:57;95625.97;;;18.80;83.34
62103;BME280;48077;48.104;11.702;2022-07-23T06:03:20;95604.19;;;18.61;82.96
62103;BME280;48077;48.104;11.702;2022-07-23T06:05:43;95614.16;;;18.66;82.46
62103;BME280;48077;48.104;11.702;2022-07-23T06:08:07;95600.19;;;18.54;82.66
62103;BME280;48077;48.104;11.702;2022-07-23T06:10:30;95634.66;;;18.72;83.37
62103;BME280;48077;48.104;11.702;2022-07-23T06:12:53;95593.72;;;18.50;82.85
62103;BME280;48077;48.104;11.702;2022-07-23T06:15:17;95636.25;;;18.78;81.04
62103;BME280;48077;48.104;11.702;2022-07-23T06:17:40;95647.00;;;18.89;80.39
62103;BME280;48077;48.104;11.702;2022-07-23T06:20:04;95639.97;;;18.88;80.03
62103;BME280;48077;48.104;11.702;2022-07-23T06:22:27;95626.69;;;18.91;80.17
62103;BME280;48077;48.104;11.702;2022-07-23T06:24:51;95584.75;;;18.59;80.50
62103;BME280;48077;48.104;11.702;2022-07-23T06:27:14;95615.19;;;18.75;81.27
62103;BME280;48077;48.104;11.702;2022-07-23T06:29:38;95620.53;;;18.86;82.91
62103;BME280;48077;48.104;11.702;2022-07-23T06:32:03;95579.69;;;18.48;84.24
62103;BME280;48077;48.104;11.702;2022-07-23T06:34:27;95588.84;;;18.52;84.78
62103;BME280;48077;48.104;11.702;2022-07-23T06:36:50;95626.78;;;18.81;85.62
62103;BME280;48077;48.104;11.702;2022-07-23T06:39:14;95608.72;;;18.71;87.00
62103;BME280;48077;48.104;11.702;2022-07-23T06:41:37;95576.53;;;18.40;87.94
62103;BME280;48077;48.104;11.702;2022-07-23T06:44:01;95591.59;;;18.47;85.55
62103;BME280;48077;48.104;11.702;2022-07-23T06:46:24;95638.34;;;18.92;84.81
62103;BME280;48077;48.104;11.702;2022-07-23T06:48:48;95545.69;;;18.47;84.79
62103;BME280;48077;48.104;11.702;2022-07-23T06:51:11;95610.47;;;18.91;82.72
62103;BME280;48077;48.104;11.702;2022-07-23T06:53:35;95640.84;;;19.12;82.61
62103;BME280;48077;48.104;11.702;2022-07-23T06:55:58;95608.34;;;18.88;83.15
62103;BME280;48077;48.104;11.702;2022-07-23T06:58:21;95649.72;;;19.23;81.73
62103;BME280;48077;48.104;11.702;2022-07-23T07:00:45;95651.31;;;19.24;83.02
62103;BME280;48077;48.104;11.702;2022-07-23T07:03:08;95648.88;;;19.23;82.93
62103;BME280;48077;48.104;11.702;2022-07-23T07:05:32;95661.19;;;19.39;83.36
62103;BME280;48077;48.104;11.702;2022-07-23T07:07:55;95624.03;;;19.20;83.18
62103;BME280;48077;48.104;11.702;2022-07-23T07:10:19;95582.63;;;18.96;81.79
62103;BME280;48077;48.104;11.702;2022-07-23T07:12:43;95627.81;;;19.49;80.94
62103;BME280;48077;48.104;11.702;2022-07-23T07:15:06;95612.13;;;19.51;80.14
62103;BME280;48077;48.104;11.702;2022-07-23T07:17:30;95595.31;;;19.54;81.13
62103;BME280;48077;48.104;11.702;2022-07-23T07:19:57;95588.47;;;19.61;80.19
62103;BME280;48077;48.104;11.702;2022-07-23T07:22:26;95561.69;;;19.60;78.49
62103;BME280;48077;48.104;11.702;2022-07-23T07:24:53;95558.34;;;19.68;77.12
62103;BME280;48077;48.104;11.702;2022-07-23T07:27:20;95581.34;;;19.95;77.47
62103;BME280;48077;48.104;11.702;2022-07-23T07:29:44;95613.16;;;20.27;75.59
62103;BME280;48077;48.104;11.702;2022-07-23T07:32:10;95612.47;;;20.35;74.67
62103;BME280;48077;48.104;11.702;2022-07-23T07:34:37;95615.66;;;20.42;74.34
62103;BME280;48077;48.104;11.702;2022-07-23T07:37:09;95586.72;;;20.38;73.25
62103;BME280;48077;48.104;11.702;2022-07-23T07:39:37;95621.94;;;20.57;73.16
62103;BME280;48077;48.104;11.702;2022-07-23T07:42:06;95566.22;;;20.13;73.82
62103;BME280;48077;48.104;11.702;2022-07-23T07:44:32;95588.91;;;20.17;74.61
62103;BME280;48077;48.104;11.702;2022-07-23T07:46:55;95685.47;;;20.70;73.64
62103;BME280;48077;48.104;11.702;2022-07-23T07:49:19;95643.81;;;20.41;72.68
62103;BME280;48077;48.104;11.702;2022-07-23T07:51:42;95644.69;;;20.37;72.97
62103;BME280;48077;48.104;11.702;2022-07-23T07:54:05;95662.72;;;20.47;72.99
62103;BME280;48077;48.104;11.702;2022-07-23T07:56:29;95649.09;;;20.33;72.64
62103;BME280;48077;48.104;11.702;2022-07-23T07:58:52;95688.94;;;20.51;72.94
62103;BME280;48077;48.104;11.702;2022-07-23T08:01:16;95689.53;;;20.48;72.95
62103;BME280;48077;48.104;11.702;2022-07-23T08:03:40;95698.69;;;20.52;73.21
62103;BME280;48077;48.104;11.702;2022-07-23T08:06:06;95674.56;;;20.32;72.41
62103;BME280;48077;48.104;11.702;2022-07-23T08:08:30;95695.75;;;20.49;72.48
62103;BME280;48077;48.104;11.702;2022-07-23T08:10:53;95693.28;;;20.52;72.90
62103;BME280;48077;48.104;11.702;2022-07-23T08:13:17;95667.47;;;20.36;73.47
62103;BME280;48077;48.104;11.702;2022-07-23T08:15:40;95697.06;;;20.51;73.53
62103;BME280;48077;48.104;11.702;2022-07-23T08:18:04;95676.63;;;20.40;73.23
62103;BME280;48077;48.104;11.702;2022-07-23T08:20:28;95678.38;;;20.50;73.40
62103;BME280;48077;48.104;11.702;2022-07-23T08:25:33;95704.16;;;20.71;73.36
62103;BME280;48077;48.104;11.702;2022-07-23T08:28:01;95665.88;;;20.54;72.64
62103;BME280;48077;48.104;11.702;2022-07-23T08:30:25;95693.22;;;20.76;72.39
62103;BME280;48077;48.104;11.702;2022-07-23T08:32:53;95712.00;;;20.92;71.50
62103;BME280;48077;48.104;11.702;2022-07-23T08:35:21;95701.81;;;20.84;71.57
62103;BME280;48077;48.104;11.702;2022-07-23T08:37:44;95713.38;;;20.89;72.00
62103;BME280;48077;48.104;11.702;2022-07-23T08:40:08;95688.19;;;20.70;70.90
62103;BME280;48077;48.104;11.702;2022-07-23T08:42:32;95708.47;;;20.91;71.66
62103;BME280;48077;48.104;11.702;2022-07-23T08:44:58;95672.16;;;20.73;71.28
62103;BME280;48077;48.104;11.702;2022-07-23T08:47:22;95666.72;;;20.73;71.20
62103;BME280;48077;48.104;11.702;2022-07-23T08:49:46;95667.09;;;20.86;69.71
62103;BME280;48077;48.104;11.702;2022-07-23T08:52:09;95705.59;;;21.20;70.35
62103;BME280;48077;48.104;11.702;2022-07-23T08:54:34;95688.00;;;21.18;69.63
62103;BME280;48077;48.104;11.702;2022-07-23T08:56:57;95687.44;;;21.21;69.12
62103;BME280;48077;48.104;11.702;2022-07-23T08:59:21;95695.19;;;21.28;69.88
62103;BME280;48077;48.104;11.702;2022-07-23T09:01:44;95692.19;;;21.29;69.42
62103;BME280;48077;48.104;11.702;2022-07-23T09:04:07;95712.03;;;21.43;69.24
62103;BME280;48077;48.104;11.702;2022-07-23T09:06:31;95686.25;;;21.27;69.17
62103;BME280;48077;48.104;11.702;2022-07-23T09:08:54;95708.78;;;21.41;68.54
62103;BME280;48077;48.104;11.702;2022-07-23T09:11:18;95720.75;;;21.40;68.95
62103;BME280;48077;48.104;11.702;2022-07-23T09:18:38;95706.03;;;21.28;69.17
62103;BME280;48077;48.104;11.702;2022-07-23T09:23:53;95746.63;;;21.52;68.08
62103;BME280;48077;48.104;11.702;2022-07-23T09:26:25;95757.44;;;21.57;68.05
62103;BME280;48077;48.104;11.702;2022-07-23T09:34:22;95758.91;;;21.82;66.70
62103;BME280;48077;48.104;11.702;2022-07-23T09:36:47;95765.19;;;22.10;66.20
62103;BME280;48077;48.104;11.702;2022-07-23T09:39:13;95761.31;;;22.30;65.85
62103;BME280;48077;48.104;11.702;2022-07-23T09:41:42;95761.94;;;22.41;64.50
62103;BME280;48077;48.104;11.702;2022-07-23T09:44:08;95759.53;;;22.53;64.59
62103;BME280;48077;48.104;11.702;2022-07-23T09:46:32;95758.69;;;22.67;63.27
62103;BME280;48077;48.104;11.702;2022-07-23T09:48:56;95774.22;;;22.80;62.88
62103;BME280;48077;48.104;11.702;2022-07-23T09:51:20;95770.34;;;22.95;62.52
62103;BME280;48077;48.104;11.702;2022-07-23T09:54:02;95757.28;;;23.11;62.29
62103;BME280;48077;48.104;11.702;2022-07-23T09:56:27;95758.03;;;23.25;62.19
62103;BME280;48077;48.104;11.702;2022-07-23T09:58:51;95766.38;;;23.29;58.77
62103;BME280;48077;48.104;11.702;2022-07-23T10:01:15;95737.06;;;23.26;59.46
62103;BME280;48077;48.104;11.702;2022-07-23T10:03:40;95757.63;;;23.54;59.21
62103;BME280;48077;48.104;11.702;2022-07-23T10:06:05;95741.94;;;23.60;56.36
62103;BME280;48077;48.104;11.702;2022-07-23T10:08:30;95719.50;;;23.77;56.69
62103;BME280;48077;48.104;11.702;2022-07-23T10:10:55;95724.66;;;24.10;55.70
62103;BME280;48077;48.104;11.702;2022-07-23T10:13:18;95735.66;;;24.67;54.41
62103;BME280;48077;48.104;11.702;2022-07-23T10:16:02;95739.53;;;24.83;52.42
62103;BME280;48077;48.104;11.702;2022-07-23T10:18:26;95737.59;;;24.84;51.55
62103;BME280;48077;48.104;11.702;2022-07-23T10:20:49;95702.31;;;24.96;51.38
62103;BME280;48077;48.104;11.702;2022-07-23T10:25:49;95720.25;;;25.84;49.42
62103;BME280;48077;48.104;11.702;2022-07-23T10:28:40;95714.03;;;25.75;48.94
62103;BME280;48077;48.104;11.702;2022-07-23T10:31:14;95699.41;;;25.71;48.96
62103;BME280;48077;48.104;11.702;2022-07-23T10:33:55;95701.81;;;25.81;47.07
62103;BME280;48077;48.104;11.702;2022-07-23T10:36:47;95701.25;;;26.05;46.95
62103;BME280;48077;48.104;11.702;2022-07-23T10:39:25;95673.78;;;26.11;45.37
62103;BME280;48077;48.104;11.702;2022-07-23T10:41:50;95697.88;;;26.47;45.84
62103;BME280;48077;48.104;11.702;2022-07-23T10:44:23;95688.16;;;26.29;45.05
62103;BME280;48077;48.104;11.702;2022-07-23T10:46:57;95690.13;;;26.19;45.10
62103;BME280;48077;48.104;11.702;2022-07-23T10:49:38;95679.94;;;25.90;45.31
62103;BME280;48077;48.104;11.702;2022-07-23T10:54:38;95695.25;;;25.65;46.47
62103;BME280;48077;48.104;11.702;2022-07-23T10:57:06;95673.09;;;25.49;46.95
62103;BME280;48077;48.104;11.702;2022-07-23T10:59:30;95676.34;;;25.42;47.28
62103;BME280;48077;48.104;11.702;2022-07-23T11:02:22;95697.38;;;25.42;46.87
62103;BME280;48077;48.104;11.702;2022-07-23T11:04:51;95688.06;;;25.34;47.56
62103;BME280;48077;48.104;11.702;2022-07-23T11:07:15;95698.16;;;25.51;47.85
62103;BME280;48077;48.104;11.702;2022-07-23T11:09:41;95712.44;;;25.65;47.70
62103;BME280;48077;48.104;11.702;2022-07-23T11:17:21;95706.19;;;25.56;45.91
62103;BME280;48077;48.104;11.702;2022-07-23T11:25:07;95694.78;;;25.19;47.35
62103;BME280;48077;48.104;11.702;2022-07-23T11:27:41;95674.56;;;25.03;47.00
62103;BME280;48077;48.104;11.702;2022-07-23T11:30:07;95682.44;;;25.04;47.65
62103;BME280;48077;48.104;11.702;2022-07-23T11:32:34;95679.69;;;25.04;47.78
62103;BME280;48077;48.104;11.702;2022-07-23T11:35:01;95693.97;;;25.01;48.36
62103;BME280;48077;48.104;11.702;2022-07-23T11:37:38;95694.75;;;24.84;48.31
62103;BME280;48077;48.104;11.702;2022-07-23T11:40:07;95696.81;;;24.70;48.56
62103;BME280;48077;48.104;11.702;2022-07-23T11:42:31;95686.69;;;24.53;49.12
62103;BME280;48077;48.104;11.702;2022-07-23T11:44:55;95684.25;;;24.52;49.88
62103;BME280;48077;48.104;11.702;2022-07-23T11:47:23;95699.63;;;24.48;49.99
62103;BME280;48077;48.104;11.702;2022-07-23T11:50:03;95687.41;;;24.36;50.57
62103;BME280;48077;48.104;11.702;2022-07-23T11:52:28;95688.69;;;24.30;50.33
62103;BME280;48077;48.104;11.702;2022-07-23T11:55:00;95701.66;;;24.33;50.94
62103;BME280;48077;48.104;11.702;2022-07-23T11:57:27;95700.84;;;24.33;51.18
62103;BME280;48077;48.104;11.702;2022-07-23T11:59:54;95682.72;;;24.19;51.50
62103;BME280;48077;48.104;11.702;2022-07-23T12:02:19;95686.53;;;24.18;51.29
62103;BME280;48077;48.104;11.702;2022-07-23T12:04:45;95707.25;;;24.28;51.11
62103;BME280;48077;48.104;11.702;2022-07-23T12:07:35;95680.44;;;24.13;51.34
62103;BME280;48077;48.104;11.702;2022-07-23T12:10:26;95692.47;;;24.20;50.98
62103;BME280;48077;48.104;11.702;2022-07-23T12:12:55;95675.13;;;24.08;51.65
62103;BME280;48077;48.104;11.702;2022-07-23T12:15:25;95700.13;;;24.10;51.77
62103;BME280;48077;48.104;11.702;2022-07-23T12:17:50;95704.78;;;24.09;51.92
62103;BME280;48077;48.104;11.702;2022-07-23T12:20:20;95695.16;;;24.03;52.17
62103;BME280;48077;48.104;11.702;2022-07-23T12:22:46;95701.53;;;23.98;52.44
62103;BME280;48077;48.104;11.702;2022-07-23T12:25:11;95694.78;;;23.96;52.19
62103;BME280;48077;48.104;11.702;2022-07-23T12:27:35;95697.47;;;23.87;52.25
62103;BME280;48077;48.104;11.702;2022-07-23T12:30:00;95697.16;;;23.89;52.36
62103;BME280;48077;48.104;11.702;2022-07-23T12:32:43;95687.50;;;23.82;52.46
62103;BME280;48077;48.104;11.702;2022-07-23T12:35:08;95696.81;;;23.81;52.87
62103;BME280;48077;48.104;11.702;2022-07-23T12:37:34;95697.13;;;23.80;52.51
62103;BME280;48077;48.104;11.702;2022-07-23T12:39:57;95698.94;;;23.71;52.46
62103;BME280;48077;48.104;11.702;2022-07-23T12:42:21;95691.72;;;23.66;52.62
62103;BME280;48077;48.104;11.702;2022-07-23T12:45:05;95698.09;;;23.61;52.65
62103;BME280;48077;48.104;11.702;2022-07-23T12:47:28;95688.63;;;23.59;52.96
62103;BME280;48077;48.104;11.702;2022-07-23T12:49:52;95697.91;;;23.58;53.26
62103;BME280;48077;48.104;11.702;2022-07-23T12:52:16;95696.91;;;23.54;53.00
62103;BME280;48077;48.104;11.702;2022-07-23T12:54:39;95692.72;;;23.48;53.23
62103;BME280;48077;48.104;11.702;2022-07-23T12:57:03;95695.75;;;23.46;53.54
62103;BME280;48077;48.104;11.702;2022-07-23T12:59:30;95691.41;;;23.45;53.55
62103;BME280;48077;48.104;11.702;2022-07-23T13:01:56;95696.75;;;23.50;53.94
62103;BME280;48077;48.104;11.702;2022-07-23T13:04:22;95702.50;;;23.49;53.78
62103;BME280;48077;48.104;11.702;2022-07-23T13:06:53;95705.91;;;23.54;53.96
62103;BME280;48077;48.104;11.702;2022-07-23T13:09:27;95700.75;;;23.75;53.55
62103;BME280;48077;48.104;11.702;2022-07-23T13:11:52;95715.66;;;24.00;52.49